sensor_id;sensor_type;location;lat;lon;timestamp;temperature;humidity
9907;DHT22;4992;51.628;6.664;2024-03-29T00:01:49;8.70;99.90
9907;DHT22;4992;51.628;6.664;2024-03-29T00:04:14;8.70;99.90
9907;DHT22;4992;51.628;6.664;2024-03-29T00:06:40;8.70;99.90
9907;DHT22;4992;51.628;6.664;2024-03-29T00:09:05;8.70;99.90
9907;DHT22;4992;51.628;6.664;2024-03-29T00:11:31;8.70;99.90
9907;DHT22;4992;51.628;6.664;2024-03-29T00:13:57;8.70;99.90
9907;DHT22;4992;51.628;6.664;2024-03-29T00:16:23;8.60;99.90
9907;DHT22;4992;51.628;6.664;2024-03-29T00:18:51;8.70;99.90
9907;DHT22;4992;51.628;6.664;2024-03-29T00:21:17;8.70;99.90
9907;DHT22;4992;51.628;6.664;2024-03-29T00:23:43;8.70;99.90
9907;DHT22;4992;51.628;6.664;2024-03-29T00:26:10;8.80;99.90
9907;DHT22;4992;51.628;6.664;2024-03-29T00:28:37;8.80;99.90
9907;DHT22;4992;51.628;6.664;2024-03-29T00:31:02;8.80;99.90
9907;DHT22;4992;51.628;6.664;2024-03-29T00:33:28;8.80;99.90
9907;DHT22;4992;51.628;6.664;2024-03-29T00:35:53;8.90;99.90
9907;DHT22;4992;51.628;6.664;2024-03-29T00:38:19;8.90;99.90
9907;DHT22;4992;51.628;6.664;2024-03-29T00:40:44;8.80;99.90
9907;DHT22;4992;51.628;6.664;2024-03-29T00:43:10;8.90;99.90
9907;DHT22;4992;51.628;6.664;2024-03-29T00:45:35;8.90;99.90
9907;DHT22;4992;51.628;6.664;2024-03-29T00:48:01;8.80;99.90
9907;DHT22;4992;51.628;6.664;2024-03-29T00:50:26;8.90;99.90
9907;DHT22;4992;51.628;6.664;2024-03-29T00:52:52;8.80;99.90
9907;DHT22;4992;51.628;6.664;2024-03-29T00:55:17;8.90;99.90
9907;DHT22;4992;51.628;6.664;2024-03-29T00:57:43;8.90;99.90
9907;DHT22;4992;51.628;6.664;2024-03-29T01:00:09;8.90;99.90
9907;DHT22;4992;51.628;6.664;2024-03-29T01:02:36;8.90;99.90
9907;DHT22;4992;51.628;6.664;2024-03-29T01:05:01;8.90;99.90
9907;DHT22;4992;51.628;6.664;2024-03-29T01:07:27;8.80;99.90
9907;DHT22;4992;51.628;6.664;2024-03-29T01:09:52;8.90;99.90
9907;DHT22;4992;51.628;6.664;2024-03-29T01:12:18;8.90;99.90
9907;DHT22;4992;51.628;6.664;2024-03-29T01:14:45;8.90;99.90
9907;DHT22;4992;51.628;6.664;2024-03-29T01:17:11;8.90;99.90
9907;DHT22;4992;51.628;6.664;2024-03-29T01:19:36;8.80;99.90
9907;DHT22;4992;51.628;6.664;2024-03-29T01:22:02;8.90;99.90
9907;DHT22;4992;51.628;6.664;2024-03-29T01:24:27;8.80;99.90
9907;DHT22;4992;51.628;6.664;2024-03-29T01:26:53;8.80;99.90
9907;DHT22;4992;51.628;6.664;2024-03-29T01:29:19;8.80;99.90
9907;DHT22;4992;51.628;6.664;2024-03-29T01:31:44;8.90;99.90
9907;DHT22;4992;51.628;6.664;2024-03-29T01:34:10;8.90;99.90
9907;DHT22;4992;51.628;6.664;2024-03-29T01:36:36;8.90;99.90
9907;DHT22;4992;51.628;6.664;2024-03-29T01:39:01;8.90;99.90
9907;DHT22;4992;51.628;6.664;2024-03-29T01:41:27;8.90;99.90
9907;DHT22;4992;51.628;6.664;2024-03-29T01:43:54;9.00;99.90
9907;DHT22;4992;51.628;6.664;2024-03-29T01:46:21;9.00;99.90
9907;DHT22;4992;51.628;6.664;2024-03-29T01:48:47;9.00;99.90
9907;DHT22;4992;51.628;6.664;2024-03-29T01:51:16;9.00;99.90
9907;DHT22;4992;51.628;6.664;2024-03-29T01:53:43;9.10;99.90
9907;DHT22;4992;51.628;6.664;2024-03-29T01:56:10;9.20;99.90
9907;DHT22;4992;51.628;6.664;2024-03-29T01:58:37;9.20;99.90
9907;DHT22;4992;51.628;6.664;2024-03-29T02:01:05;9.20;99.90
9907;DHT22;4992;51.628;6.664;2024-03-29T02:03:32;9.20;99.90
9907;DHT22;4992;51.628;6.664;2024-03-29T02:05:58;9.20;99.90
9907;DHT22;4992;51.628;6.664;2024-03-29T02:08:25;9.20;99.90
9907;DHT22;4992;51.628;6.664;2024-03-29T02:10:51;9.20;99.90
9907;DHT22;4992;51.628;6.664;2024-03-29T02:13:17;9.20;99.90
9907;DHT22;4992;51.628;6.664;2024-03-29T02:15:42;9.20;99.90
9907;DHT22;4992;51.628;6.664;2024-03-29T02:18:08;9.20;99.90
9907;DHT22;4992;51.628;6.664;2024-03-29T02:20:34;9.20;99.90
9907;DHT22;4992;51.628;6.664;2024-03-29T02:23:10;9.20;99.90
9907;DHT22;4992;51.628;6.664;2024-03-29T02:25:36;9.30;99.90
9907;DHT22;4992;51.628;6.664;2024-03-29T02:28:03;9.30;99.90
9907;DHT22;4992;51.628;6.664;2024-03-29T02:30:29;9.40;99.90
9907;DHT22;4992;51.628;6.664;2024-03-29T02:32:58;9.40;99.90
9907;DHT22;4992;51.628;6.664;2024-03-29T02:35:24;9.40;99.90
9907;DHT22;4992;51.628;6.664;2024-03-29T02:37:50;9.40;99.90
9907;DHT22;4992;51.628;6.664;2024-03-29T02:40:16;9.50;99.90
9907;DHT22;4992;51.628;6.664;2024-03-29T02:42:42;9.60;99.90
9907;DHT22;4992;51.628;6.664;2024-03-29T02:45:08;9.60;99.90
9907;DHT22;4992;51.628;6.664;2024-03-29T02:47:33;9.70;99.90
9907;DHT22;4992;51.628;6.664;2024-03-29T02:49:59;9.70;99.90
9907;DHT22;4992;51.628;6.664;2024-03-29T02:52:24;9.70;99.90
9907;DHT22;4992;51.628;6.664;2024-03-29T02:54:50;9.70;99.90
9907;DHT22;4992;51.628;6.664;2024-03-29T02:57:15;9.70;99.90
9907;DHT22;4992;51.628;6.664;2024-03-29T02:59:41;9.80;99.90
9907;DHT22;4992;51.628;6.664;2024-03-29T03:02:08;9.80;99.90
9907;DHT22;4992;51.628;6.664;2024-03-29T03:04:33;9.90;99.90
9907;DHT22;4992;51.628;6.664;2024-03-29T03:06:59;9.90;99.90
9907;DHT22;4992;51.628;6.664;2024-03-29T03:09:44;9.90;99.90
9907;DHT22;4992;51.628;6.664;2024-03-29T03:12:31;9.90;99.90
9907;DHT22;4992;51.628;6.664;2024-03-29T03:15:00;9.80;99.90
9907;DHT22;4992;51.628;6.664;2024-03-29T03:17:29;9.60;99.90
9907;DHT22;4992;51.628;6.664;2024-03-29T03:19:54;9.50;99.90
9907;DHT22;4992;51.628;6.664;2024-03-29T03:22:20;9.30;99.90
9907;DHT22;4992;51.628;6.664;2024-03-29T03:24:46;9.20;99.90
9907;DHT22;4992;51.628;6.664;2024-03-29T03:27:11;9.10;99.90
9907;DHT22;4992;51.628;6.664;2024-03-29T03:29:37;8.90;99.90
9907;DHT22;4992;51.628;6.664;2024-03-29T03:32:03;8.80;99.90
9907;DHT22;4992;51.628;6.664;2024-03-29T03:34:29;8.70;99.90
9907;DHT22;4992;51.628;6.664;2024-03-29T03:36:54;8.60;99.90
9907;DHT22;4992;51.628;6.664;2024-03-29T03:39:20;8.50;99.90
9907;DHT22;4992;51.628;6.664;2024-03-29T03:41:45;8.50;99.90
9907;DHT22;4992;51.628;6.664;2024-03-29T03:44:12;8.40;99.90
9907;DHT22;4992;51.628;6.664;2024-03-29T03:46:37;8.30;99.90
9907;DHT22;4992;51.628;6.664;2024-03-29T03:49:03;8.20;99.90
9907;DHT22;4992;51.628;6.664;2024-03-29T03:51:28;8.20;99.90
9907;DHT22;4992;51.628;6.664;2024-03-29T03:53:54;8.20;99.90
9907;DHT22;4992;51.628;6.664;2024-03-29T03:56:19;8.10;99.90
9907;DHT22;4992;51.628;6.664;2024-03-29T03:58:45;8.00;99.90
9907;DHT22;4992;51.628;6.664;2024-03-29T04:01:10;8.00;99.90
9907;DHT22;4992;51.628;6.664;2024-03-29T04:03:36;8.00;99.90
9907;DHT22;4992;51.628;6.664;2024-03-29T04:06:05;8.00;99.90
9907;DHT22;4992;51.628;6.664;2024-03-29T04:08:31;8.00;99.90
9907;DHT22;4992;51.628;6.664;2024-03-29T04:10:56;8.00;99.90
9907;DHT22;4992;51.628;6.664;2024-03-29T04:13:22;8.00;99.90
9907;DHT22;4992;51.628;6.664;2024-03-29T04:15:48;7.90;99.90
9907;DHT22;4992;51.628;6.664;2024-03-29T04:18:13;7.90;99.90
9907;DHT22;4992;51.628;6.664;2024-03-29T04:20:39;7.90;99.90
9907;DHT22;4992;51.628;6.664;2024-03-29T04:23:05;7.90;99.90
9907;DHT22;4992;51.628;6.664;2024-03-29T04:25:31;7.90;99.90
9907;DHT22;4992;51.628;6.664;2024-03-29T04:27:57;7.90;99.90
9907;DHT22;4992;51.628;6.664;2024-03-29T04:30:22;7.80;99.90
9907;DHT22;4992;51.628;6.664;2024-03-29T04:32:47;7.80;99.90
9907;DHT22;4992;51.628;6.664;2024-03-29T04:35:13;7.80;99.90
9907;DHT22;4992;51.628;6.664;2024-03-29T04:37:39;7.80;99.90
9907;DHT22;4992;51.628;6.664;2024-03-29T04:40:05;7.80;99.90
9907;DHT22;4992;51.628;6.664;2024-03-29T04:42:31;7.80;99.90
9907;DHT22;4992;51.628;6.664;2024-03-29T04:44:57;7.70;99.90
9907;DHT22;4992;51.628;6.664;2024-03-29T04:47:22;7.70;99.90
9907;DHT22;4992;51.628;6.664;2024-03-29T04:49:48;7.70;99.90
9907;DHT22;4992;51.628;6.664;2024-03-29T04:52:13;7.70;99.90
9907;DHT22;4992;51.628;6.664;2024-03-29T04:54:39;7.70;99.90
9907;DHT22;4992;51.628;6.664;2024-03-29T04:57:04;7.60;99.90
9907;DHT22;4992;51.628;6.664;2024-03-29T04:59:32;7.60;99.90
9907;DHT22;4992;51.628;6.664;2024-03-29T05:02:01;7.60;99.90
9907;DHT22;4992;51.628;6.664;2024-03-29T05:04:27;7.50;99.90
9907;DHT22;4992;51.628;6.664;2024-03-29T05:06:57;7.50;99.90
9907;DHT22;4992;51.628;6.664;2024-03-29T05:09:24;7.50;99.90
9907;DHT22;4992;51.628;6.664;2024-03-29T05:11:50;7.50;99.90
9907;DHT22;4992;51.628;6.664;2024-03-29T05:14:16;7.50;99.90
9907;DHT22;4992;51.628;6.664;2024-03-29T05:16:44;7.40;99.90
9907;DHT22;4992;51.628;6.664;2024-03-29T05:19:11;7.40;99.90
9907;DHT22;4992;51.628;6.664;2024-03-29T05:21:36;7.40;99.90
9907;DHT22;4992;51.628;6.664;2024-03-29T05:24:02;7.40;99.90
9907;DHT22;4992;51.628;6.664;2024-03-29T05:26:27;7.40;99.90
9907;DHT22;4992;51.628;6.664;2024-03-29T05:28:53;7.40;99.90
9907;DHT22;4992;51.628;6.664;2024-03-29T05:31:22;7.50;99.90
9907;DHT22;4992;51.628;6.664;2024-03-29T05:33:48;7.40;99.90
9907;DHT22;4992;51.628;6.664;2024-03-29T05:36:13;7.40;99.90
9907;DHT22;4992;51.628;6.664;2024-03-29T05:38:39;7.40;99.90
9907;DHT22;4992;51.628;6.664;2024-03-29T05:41:05;7.40;99.90
9907;DHT22;4992;51.628;6.664;2024-03-29T05:43:31;7.40;99.90
9907;DHT22;4992;51.628;6.664;2024-03-29T05:45:57;7.40;99.90
9907;DHT22;4992;51.628;6.664;2024-03-29T05:48:23;7.40;99.90
9907;DHT22;4992;51.628;6.664;2024-03-29T05:50:49;7.40;99.90
9907;DHT22;4992;51.628;6.664;2024-03-29T05:53:14;7.40;99.90
9907;DHT22;4992;51.628;6.664;2024-03-29T05:55:40;7.40;99.90
9907;DHT22;4992;51.628;6.664;2024-03-29T05:58:05;7.40;99.90
9907;DHT22;4992;51.628;6.664;2024-03-29T06:00:34;7.50;99.90
9907;DHT22;4992;51.628;6.664;2024-03-29T06:03:00;7.40;99.90
9907;DHT22;4992;51.628;6.664;2024-03-29T06:05:28;7.50;99.90
9907;DHT22;4992;51.628;6.664;2024-03-29T06:07:54;7.50;99.90
9907;DHT22;4992;51.628;6.664;2024-03-29T06:10:19;7.50;99.90
9907;DHT22;4992;51.628;6.664;2024-03-29T06:12:45;7.40;99.90
9907;DHT22;4992;51.628;6.664;2024-03-29T06:15:10;7.40;99.90
9907;DHT22;4992;51.628;6.664;2024-03-29T06:17:54;7.40;99.90
9907;DHT22;4992;51.628;6.664;2024-03-29T06:20:20;7.50;99.90
9907;DHT22;4992;51.628;6.664;2024-03-29T06:22:45;7.40;99.90
9907;DHT22;4992;51.628;6.664;2024-03-29T06:25:11;7.40;99.90
9907;DHT22;4992;51.628;6.664;2024-03-29T06:27:37;7.40;99.90
9907;DHT22;4992;51.628;6.664;2024-03-29T06:30:04;7.50;99.90
9907;DHT22;4992;51.628;6.664;2024-03-29T06:32:33;7.50;99.90
9907;DHT22;4992;51.628;6.664;2024-03-29T06:34:59;7.50;99.90
9907;DHT22;4992;51.628;6.664;2024-03-29T06:37:25;7.50;99.90
9907;DHT22;4992;51.628;6.664;2024-03-29T06:39:52;7.60;99.90
9907;DHT22;4992;51.628;6.664;2024-03-29T06:42:17;7.50;99.90
9907;DHT22;4992;51.628;6.664;2024-03-29T06:44:43;7.50;99.90
9907;DHT22;4992;51.628;6.664;2024-03-29T06:47:09;7.60;99.90
9907;DHT22;4992;51.628;6.664;2024-03-29T06:49:35;7.50;99.90
9907;DHT22;4992;51.628;6.664;2024-03-29T06:52:01;7.60;99.90
9907;DHT22;4992;51.628;6.664;2024-03-29T06:54:27;7.60;99.90
9907;DHT22;4992;51.628;6.664;2024-03-29T06:56:54;7.60;99.90
9907;DHT22;4992;51.628;6.664;2024-03-29T06:59:19;7.60;99.90
9907;DHT22;4992;51.628;6.664;2024-03-29T07:01:45;7.70;99.90
9907;DHT22;4992;51.628;6.664;2024-03-29T07:04:13;7.70;99.90
9907;DHT22;4992;51.628;6.664;2024-03-29T07:06:38;7.80;99.90
9907;DHT22;4992;51.628;6.664;2024-03-29T07:09:05;7.80;99.90
9907;DHT22;4992;51.628;6.664;2024-03-29T07:11:31;7.80;99.90
9907;DHT22;4992;51.628;6.664;2024-03-29T07:13:57;7.90;99.90
9907;DHT22;4992;51.628;6.664;2024-03-29T07:16:22;7.90;99.90
9907;DHT22;4992;51.628;6.664;2024-03-29T07:18:48;8.00;99.90
9907;DHT22;4992;51.628;6.664;2024-03-29T07:21:13;8.10;99.90
9907;DHT22;4992;51.628;6.664;2024-03-29T07:23:39;8.20;99.90
9907;DHT22;4992;51.628;6.664;2024-03-29T07:26:05;8.30;99.90
9907;DHT22;4992;51.628;6.664;2024-03-29T07:28:31;8.40;99.90
9907;DHT22;4992;51.628;6.664;2024-03-29T07:30:57;8.50;99.90
9907;DHT22;4992;51.628;6.664;2024-03-29T07:33:24;8.50;99.90
9907;DHT22;4992;51.628;6.664;2024-03-29T07:35:55;8.50;99.90
9907;DHT22;4992;51.628;6.664;2024-03-29T07:38:24;8.50;99.90
9907;DHT22;4992;51.628;6.664;2024-03-29T07:40:50;8.60;99.90
9907;DHT22;4992;51.628;6.664;2024-03-29T07:43:16;8.60;99.90
9907;DHT22;4992;51.628;6.664;2024-03-29T07:45:42;8.70;99.90
9907;DHT22;4992;51.628;6.664;2024-03-29T07:48:13;8.80;99.90
9907;DHT22;4992;51.628;6.664;2024-03-29T07:50:40;8.90;99.90
9907;DHT22;4992;51.628;6.664;2024-03-29T07:53:05;9.00;99.90
9907;DHT22;4992;51.628;6.664;2024-03-29T07:55:31;9.00;99.90
9907;DHT22;4992;51.628;6.664;2024-03-29T07:57:56;9.00;99.90
9907;DHT22;4992;51.628;6.664;2024-03-29T08:00:22;9.10;99.90
9907;DHT22;4992;51.628;6.664;2024-03-29T08:02:48;9.10;99.90
9907;DHT22;4992;51.628;6.664;2024-03-29T08:05:14;9.20;99.90
9907;DHT22;4992;51.628;6.664;2024-03-29T08:07:40;9.30;99.90
9907;DHT22;4992;51.628;6.664;2024-03-29T08:10:06;9.30;99.90
9907;DHT22;4992;51.628;6.664;2024-03-29T08:12:32;9.40;99.90
9907;DHT22;4992;51.628;6.664;2024-03-29T08:14:58;9.50;99.90
9907;DHT22;4992;51.628;6.664;2024-03-29T08:17:24;9.60;99.90
9907;DHT22;4992;51.628;6.664;2024-03-29T08:19:50;9.70;99.90
9907;DHT22;4992;51.628;6.664;2024-03-29T08:22:15;9.90;99.90
9907;DHT22;4992;51.628;6.664;2024-03-29T08:24:41;10.00;99.90
9907;DHT22;4992;51.628;6.664;2024-03-29T08:27:07;10.20;99.90
9907;DHT22;4992;51.628;6.664;2024-03-29T08:29:32;10.40;99.90
9907;DHT22;4992;51.628;6.664;2024-03-29T08:31:58;10.50;99.90
9907;DHT22;4992;51.628;6.664;2024-03-29T08:34:23;10.60;99.90
9907;DHT22;4992;51.628;6.664;2024-03-29T08:36:49;10.70;99.90
9907;DHT22;4992;51.628;6.664;2024-03-29T08:39:15;10.80;99.90
9907;DHT22;4992;51.628;6.664;2024-03-29T08:41:42;10.90;99.90
9907;DHT22;4992;51.628;6.664;2024-03-29T08:44:07;11.00;99.90
9907;DHT22;4992;51.628;6.664;2024-03-29T08:46:33;11.00;99.90
9907;DHT22;4992;51.628;6.664;2024-03-29T08:48:58;11.00;99.90
9907;DHT22;4992;51.628;6.664;2024-03-29T08:51:24;11.20;99.90
9907;DHT22;4992;51.628;6.664;2024-03-29T08:53:49;11.30;99.90
9907;DHT22;4992;51.628;6.664;2024-03-29T08:56:15;11.40;99.90
9907;DHT22;4992;51.628;6.664;2024-03-29T08:58:41;11.40;99.90
9907;DHT22;4992;51.628;6.664;2024-03-29T09:01:06;11.50;99.90
9907;DHT22;4992;51.628;6.664;2024-03-29T09:03:32;11.50;99.90
9907;DHT22;4992;51.628;6.664;2024-03-29T09:05:57;11.70;99.90
9907;DHT22;4992;51.628;6.664;2024-03-29T09:08:23;11.60;99.90
9907;DHT22;4992;51.628;6.664;2024-03-29T09:10:49;11.60;99.90
9907;DHT22;4992;51.628;6.664;2024-03-29T09:13:14;11.50;99.90
9907;DHT22;4992;51.628;6.664;2024-03-29T09:15:40;11.50;99.90
9907;DHT22;4992;51.628;6.664;2024-03-29T09:18:05;11.40;99.90
9907;DHT22;4992;51.628;6.664;2024-03-29T09:20:58;11.30;99.90
9907;DHT22;4992;51.628;6.664;2024-03-29T09:23:25;11.20;99.90
9907;DHT22;4992;51.628;6.664;2024-03-29T09:25:53;11.20;99.90
9907;DHT22;4992;51.628;6.664;2024-03-29T09:28:19;11.10;99.90
9907;DHT22;4992;51.628;6.664;2024-03-29T09:30:46;11.10;99.90
9907;DHT22;4992;51.628;6.664;2024-03-29T09:33:12;11.20;99.90
9907;DHT22;4992;51.628;6.664;2024-03-29T09:35:37;11.30;99.90
9907;DHT22;4992;51.628;6.664;2024-03-29T09:38:03;11.20;99.90
9907;DHT22;4992;51.628;6.664;2024-03-29T09:40:29;11.30;99.90
9907;DHT22;4992;51.628;6.664;2024-03-29T09:42:56;11.20;99.90
9907;DHT22;4992;51.628;6.664;2024-03-29T09:45:33;11.30;99.90
9907;DHT22;4992;51.628;6.664;2024-03-29T09:48:04;11.40;99.90
9907;DHT22;4992;51.628;6.664;2024-03-29T09:50:31;11.30;99.90
9907;DHT22;4992;51.628;6.664;2024-03-29T09:52:58;11.30;99.90
9907;DHT22;4992;51.628;6.664;2024-03-29T09:55:23;11.30;99.90
9907;DHT22;4992;51.628;6.664;2024-03-29T09:57:50;11.40;99.90
9907;DHT22;4992;51.628;6.664;2024-03-29T10:00:16;11.50;99.90
9907;DHT22;4992;51.628;6.664;2024-03-29T10:02:43;11.60;99.90
9907;DHT22;4992;51.628;6.664;2024-03-29T10:05:11;11.70;99.90
9907;DHT22;4992;51.628;6.664;2024-03-29T10:07:38;11.80;99.90
9907;DHT22;4992;51.628;6.664;2024-03-29T10:10:05;11.80;99.90
9907;DHT22;4992;51.628;6.664;2024-03-29T10:12:31;11.80;99.90
9907;DHT22;4992;51.628;6.664;2024-03-29T10:14:57;11.80;99.90
9907;DHT22;4992;51.628;6.664;2024-03-29T10:17:34;11.90;99.90
9907;DHT22;4992;51.628;6.664;2024-03-29T10:20:03;12.00;99.90
9907;DHT22;4992;51.628;6.664;2024-03-29T10:22:40;12.10;99.90
9907;DHT22;4992;51.628;6.664;2024-03-29T10:25:05;12.20;99.90
9907;DHT22;4992;51.628;6.664;2024-03-29T10:27:31;12.30;99.90
9907;DHT22;4992;51.628;6.664;2024-03-29T10:29:57;12.40;99.90
9907;DHT22;4992;51.628;6.664;2024-03-29T10:32:22;12.60;99.90
9907;DHT22;4992;51.628;6.664;2024-03-29T10:34:49;12.60;99.90
9907;DHT22;4992;51.628;6.664;2024-03-29T10:37:15;12.60;99.90
9907;DHT22;4992;51.628;6.664;2024-03-29T10:39:44;12.60;99.90
9907;DHT22;4992;51.628;6.664;2024-03-29T10:42:11;12.80;99.90
9907;DHT22;4992;51.628;6.664;2024-03-29T10:44:39;13.10;99.90
9907;DHT22;4992;51.628;6.664;2024-03-29T10:47:06;13.30;99.90
9907;DHT22;4992;51.628;6.664;2024-03-29T10:49:32;13.40;99.90
9907;DHT22;4992;51.628;6.664;2024-03-29T10:51:59;13.40;99.90
9907;DHT22;4992;51.628;6.664;2024-03-29T10:54:25;13.40;99.90
9907;DHT22;4992;51.628;6.664;2024-03-29T10:56:59;13.30;99.90
9907;DHT22;4992;51.628;6.664;2024-03-29T10:59:40;13.20;99.90
9907;DHT22;4992;51.628;6.664;2024-03-29T11:02:15;13.20;99.90
9907;DHT22;4992;51.628;6.664;2024-03-29T11:04:43;13.10;99.90
9907;DHT22;4992;51.628;6.664;2024-03-29T11:07:17;13.20;99.90
9907;DHT22;4992;51.628;6.664;2024-03-29T11:09:46;13.30;99.90
9907;DHT22;4992;51.628;6.664;2024-03-29T11:12:14;13.20;99.90
9907;DHT22;4992;51.628;6.664;2024-03-29T11:14:42;13.20;99.90
9907;DHT22;4992;51.628;6.664;2024-03-29T11:17:10;13.20;99.90
9907;DHT22;4992;51.628;6.664;2024-03-29T11:19:38;13.10;99.90
9907;DHT22;4992;51.628;6.664;2024-03-29T11:22:04;13.00;99.90
9907;DHT22;4992;51.628;6.664;2024-03-29T11:24:31;13.00;99.90
9907;DHT22;4992;51.628;6.664;2024-03-29T11:26:57;12.90;99.90
9907;DHT22;4992;51.628;6.664;2024-03-29T11:29:24;12.90;99.90
9907;DHT22;4992;51.628;6.664;2024-03-29T11:31:59;13.00;99.90
9907;DHT22;4992;51.628;6.664;2024-03-29T11:34:24;12.90;99.90
9907;DHT22;4992;51.628;6.664;2024-03-29T11:36:50;13.00;99.90
9907;DHT22;4992;51.628;6.664;2024-03-29T11:39:22;13.00;99.90
9907;DHT22;4992;51.628;6.664;2024-03-29T11:41:48;13.20;99.90
9907;DHT22;4992;51.628;6.664;2024-03-29T11:44:14;13.30;99.90
9907;DHT22;4992;51.628;6.664;2024-03-29T11:46:40;13.30;99.90
9907;DHT22;4992;51.628;6.664;2024-03-29T11:49:06;13.40;99.90
9907;DHT22;4992;51.628;6.664;2024-03-29T11:51:32;13.50;99.90
9907;DHT22;4992;51.628;6.664;2024-03-29T11:53:59;13.50;99.90
9907;DHT22;4992;51.628;6.664;2024-03-29T11:56:25;13.40;99.90
9907;DHT22;4992;51.628;6.664;2024-03-29T11:58:50;13.50;99.90
9907;DHT22;4992;51.628;6.664;2024-03-29T12:01:16;13.50;99.90
9907;DHT22;4992;51.628;6.664;2024-03-29T12:03:42;13.50;99.90
9907;DHT22;4992;51.628;6.664;2024-03-29T12:06:10;13.50;99.90
9907;DHT22;4992;51.628;6.664;2024-03-29T12:08:39;13.60;99.90
9907;DHT22;4992;51.628;6.664;2024-03-29T12:11:05;13.70;99.90
9907;DHT22;4992;51.628;6.664;2024-03-29T12:13:31;13.70;99.90
9907;DHT22;4992;51.628;6.664;2024-03-29T12:15:57;13.70;99.90
9907;DHT22;4992;51.628;6.664;2024-03-29T12:18:24;13.80;99.90
9907;DHT22;4992;51.628;6.664;2024-03-29T12:20:54;13.80;99.90
9907;DHT22;4992;51.628;6.664;2024-03-29T12:23:21;13.90;99.90
9907;DHT22;4992;51.628;6.664;2024-03-29T12:25:48;13.90;99.90
9907;DHT22;4992;51.628;6.664;2024-03-29T12:28:15;13.80;99.90
9907;DHT22;4992;51.628;6.664;2024-03-29T12:30:46;13.70;99.90
9907;DHT22;4992;51.628;6.664;2024-03-29T12:33:17;13.60;99.90
9907;DHT22;4992;51.628;6.664;2024-03-29T12:35:49;13.50;99.90
9907;DHT22;4992;51.628;6.664;2024-03-29T12:38:16;13.50;99.90
9907;DHT22;4992;51.628;6.664;2024-03-29T12:40:43;13.40;99.90
9907;DHT22;4992;51.628;6.664;2024-03-29T12:43:10;13.40;99.90
9907;DHT22;4992;51.628;6.664;2024-03-29T12:45:39;13.20;99.90
9907;DHT22;4992;51.628;6.664;2024-03-29T12:48:16;13.10;99.90
9907;DHT22;4992;51.628;6.664;2024-03-29T12:50:43;13.10;99.90
9907;DHT22;4992;51.628;6.664;2024-03-29T12:53:10;13.10;99.90
9907;DHT22;4992;51.628;6.664;2024-03-29T12:55:43;13.30;99.90
9907;DHT22;4992;51.628;6.664;2024-03-29T12:58:16;13.70;99.90
9907;DHT22;4992;51.628;6.664;2024-03-29T13:00:43;14.30;99.90
9907;DHT22;4992;51.628;6.664;2024-03-29T13:03:10;15.40;99.90
9907;DHT22;4992;51.628;6.664;2024-03-29T13:05:36;16.10;99.90
9907;DHT22;4992;51.628;6.664;2024-03-29T13:08:07;16.60;99.90
9907;DHT22;4992;51.628;6.664;2024-03-29T13:10:34;16.80;99.90
9907;DHT22;4992;51.628;6.664;2024-03-29T13:13:00;17.10;99.90
9907;DHT22;4992;51.628;6.664;2024-03-29T13:15:26;17.10;99.90
9907;DHT22;4992;51.628;6.664;2024-03-29T13:17:54;16.90;99.90
9907;DHT22;4992;51.628;6.664;2024-03-29T13:20:20;16.70;99.90
9907;DHT22;4992;51.628;6.664;2024-03-29T13:22:47;17.20;99.90
9907;DHT22;4992;51.628;6.664;2024-03-29T13:25:15;18.00;99.90
9907;DHT22;4992;51.628;6.664;2024-03-29T13:27:42;18.60;99.90
9907;DHT22;4992;51.628;6.664;2024-03-29T13:30:10;19.30;99.90
9907;DHT22;4992;51.628;6.664;2024-03-29T13:32:36;19.60;99.90
9907;DHT22;4992;51.628;6.664;2024-03-29T13:35:02;19.80;99.90
9907;DHT22;4992;51.628;6.664;2024-03-29T13:37:31;19.30;99.90
9907;DHT22;4992;51.628;6.664;2024-03-29T13:39:57;18.70;99.90
9907;DHT22;4992;51.628;6.664;2024-03-29T13:42:22;18.10;99.90
9907;DHT22;4992;51.628;6.664;2024-03-29T13:44:51;17.50;99.90
9907;DHT22;4992;51.628;6.664;2024-03-29T13:47:17;17.10;99.90
9907;DHT22;4992;51.628;6.664;2024-03-29T13:49:43;16.60;99.90
9907;DHT22;4992;51.628;6.664;2024-03-29T13:52:09;16.20;99.90
9907;DHT22;4992;51.628;6.664;2024-03-29T13:54:35;15.90;99.90
9907;DHT22;4992;51.628;6.664;2024-03-29T13:57:02;15.70;99.90
9907;DHT22;4992;51.628;6.664;2024-03-29T13:59:29;15.50;99.90
9907;DHT22;4992;51.628;6.664;2024-03-29T14:01:54;15.50;99.90
9907;DHT22;4992;51.628;6.664;2024-03-29T14:04:20;16.20;99.90
9907;DHT22;4992;51.628;6.664;2024-03-29T14:06:45;16.80;99.90
9907;DHT22;4992;51.628;6.664;2024-03-29T14:09:11;17.40;99.90
9907;DHT22;4992;51.628;6.664;2024-03-29T14:11:37;17.70;99.90
9907;DHT22;4992;51.628;6.664;2024-03-29T14:14:03;18.50;99.90
9907;DHT22;4992;51.628;6.664;2024-03-29T14:16:30;19.30;99.90
9907;DHT22;4992;51.628;6.664;2024-03-29T14:18:56;20.00;99.90
9907;DHT22;4992;51.628;6.664;2024-03-29T14:21:21;21.00;99.90
9907;DHT22;4992;51.628;6.664;2024-03-29T14:23:47;21.90;99.90
9907;DHT22;4992;51.628;6.664;2024-03-29T14:26:13;22.90;99.90
9907;DHT22;4992;51.628;6.664;2024-03-29T14:28:39;22.90;99.90
9907;DHT22;4992;51.628;6.664;2024-03-29T14:31:04;22.30;99.90
9907;DHT22;4992;51.628;6.664;2024-03-29T14:33:30;21.40;99.90
9907;DHT22;4992;51.628;6.664;2024-03-29T14:35:55;20.70;99.90
9907;DHT22;4992;51.628;6.664;2024-03-29T14:38:23;20.20;99.90
9907;DHT22;4992;51.628;6.664;2024-03-29T14:40:48;19.40;99.90
9907;DHT22;4992;51.628;6.664;2024-03-29T14:43:14;18.90;99.90
9907;DHT22;4992;51.628;6.664;2024-03-29T14:45:41;18.60;99.90
9907;DHT22;4992;51.628;6.664;2024-03-29T14:48:07;18.10;99.90
9907;DHT22;4992;51.628;6.664;2024-03-29T14:50:33;17.90;99.90
9907;DHT22;4992;51.628;6.664;2024-03-29T14:52:58;17.60;99.90
9907;DHT22;4992;51.628;6.664;2024-03-29T14:55:24;17.30;99.90
9907;DHT22;4992;51.628;6.664;2024-03-29T14:57:51;17.10;99.90
9907;DHT22;4992;51.628;6.664;2024-03-29T15:00:18;16.90;99.90
9907;DHT22;4992;51.628;6.664;2024-03-29T15:02:44;16.60;99.90
9907;DHT22;4992;51.628;6.664;2024-03-29T15:05:11;16.50;99.90
9907;DHT22;4992;51.628;6.664;2024-03-29T15:07:37;16.30;99.90
9907;DHT22;4992;51.628;6.664;2024-03-29T15:10:03;16.20;99.90
9907;DHT22;4992;51.628;6.664;2024-03-29T15:12:38;16.10;99.90
9907;DHT22;4992;51.628;6.664;2024-03-29T15:15:05;16.10;99.90
9907;DHT22;4992;51.628;6.664;2024-03-29T15:17:31;16.00;99.90
9907;DHT22;4992;51.628;6.664;2024-03-29T15:19:57;16.00;99.90
9907;DHT22;4992;51.628;6.664;2024-03-29T15:22:22;16.10;99.90
9907;DHT22;4992;51.628;6.664;2024-03-29T15:24:49;16.20;99.90
9907;DHT22;4992;51.628;6.664;2024-03-29T15:27:14;16.30;99.90
9907;DHT22;4992;51.628;6.664;2024-03-29T15:30:03;16.30;99.90
9907;DHT22;4992;51.628;6.664;2024-03-29T15:32:30;16.20;99.90
9907;DHT22;4992;51.628;6.664;2024-03-29T15:34:58;16.20;99.90
9907;DHT22;4992;51.628;6.664;2024-03-29T15:37:23;16.10;99.90
9907;DHT22;4992;51.628;6.664;2024-03-29T15:39:51;16.10;99.90
9907;DHT22;4992;51.628;6.664;2024-03-29T15:42:16;16.10;99.90
9907;DHT22;4992;51.628;6.664;2024-03-29T15:44:42;16.00;99.90
9907;DHT22;4992;51.628;6.664;2024-03-29T15:47:08;16.00;99.90
9907;DHT22;4992;51.628;6.664;2024-03-29T15:49:34;15.90;99.90
9907;DHT22;4992;51.628;6.664;2024-03-29T15:52:00;15.90;99.90
9907;DHT22;4992;51.628;6.664;2024-03-29T15:54:25;15.80;99.90
9907;DHT22;4992;51.628;6.664;2024-03-29T15:56:52;15.80;99.90
9907;DHT22;4992;51.628;6.664;2024-03-29T15:59:18;15.80;99.90
9907;DHT22;4992;51.628;6.664;2024-03-29T16:01:43;15.70;99.90
9907;DHT22;4992;51.628;6.664;2024-03-29T16:04:09;15.60;99.90
9907;DHT22;4992;51.628;6.664;2024-03-29T16:06:34;15.50;99.90